Time;durP1;ratioP1;P1;durP2;ratioP2;P2;SDS_P1;SDS_P2;PMS_P1;PMS_P2;Temp;Humidity;BMP_temperature;BMP_pressure;BME280_temperature;BME280_humidity;BME280_pressure;Samples;Min_cycle;Max_cycle;Signal;HPM_P1;HPM_P2
2021/12/24 00:02:21;;;;;;;86.25;25.40;;;5.80;99.90;;;;;;5113372;28;20525;-86
2021/12/24 00:05:06;;;;;;;71.53;24.67;;;6.10;99.90;;;;;;5098385;28;20047;-86
2021/12/24 00:07:50;;;;;;;85.10;25.27;;;5.90;99.90;;;;;;5084033;28;20061;-86
2021/12/24 00:10:36;;;;;;;84.53;24.92;;;5.90;99.90;;;;;;5097451;28;20042;-86
2021/12/24 00:13:21;;;;;;;75.68;24.85;;;5.90;99.90;;;;;;5083485;28;20042;-86
2021/12/24 00:16:31;;;;;;;85.72;25.67;;;5.90;99.90;;;;;;5084080;28;20136;-86
2021/12/24 00:19:23;;;;;;;78.72;24.35;;;6.00;99.90;;;;;;5101872;28;20410;-86
2021/12/24 00:22:27;;;;;;;74.60;23.35;;;6.00;99.90;;;;;;5098334;28;20035;-87
2021/12/24 00:37:35;;;;;;;65.75;20.48;;;6.10;99.90;;;;;;5100042;28;20039;-86
2021/12/24 00:40:20;;;;;;;63.35;21.02;;;6.80;99.90;;;;;;5083670;28;20047;-86
2021/12/24 00:43:05;;;;;;;75.07;22.02;;;6.20;99.90;;;;;;5113129;28;20046;-86
2021/12/24 00:45:49;;;;;;;69.72;20.92;;;6.50;99.90;;;;;;5097913;28;20065;-86
2021/12/24 00:48:33;;;;;;;;;;;6.30;99.90;;;;;;5097620;28;20092;-86
2021/12/24 00:51:30;;;;;;;52.20;17.00;;;6.30;99.90;;;;;;5097716;28;19957;-86
2021/12/24 00:57:18;;;;;;;51.42;18.55;;;6.70;99.90;;;;;;5100410;28;20069;-86
2021/12/24 01:00:30;;;;;;;54.78;17.85;;;6.30;99.90;;;;;;5112976;28;20041;-86
2021/12/24 01:03:14;;;;;;;57.90;17.92;;;6.40;99.90;;;;;;5112996;28;20081;-86
2021/12/24 01:05:59;;;;;;;57.22;18.50;;;6.40;99.90;;;;;;5097661;28;20066;-86
2021/12/24 01:08:43;;;;;;;58.35;18.35;;;6.40;99.90;;;;;;5112243;28;20512;-87
2021/12/24 01:11:28;;;;;;;49.95;16.90;;;6.80;99.90;;;;;;5112398;28;20096;-86
2021/12/24 01:14:12;;;;;;;46.85;16.63;;;6.50;99.90;;;;;;5097347;28;20051;-86
2021/12/24 01:17:11;;;;;;;50.08;16.38;;;6.40;99.90;;;;;;5083328;28;20093;-87
2021/12/24 01:20:01;;;;;;;40.15;14.63;;;6.50;99.90;;;;;;5097386;28;20042;-87
2021/12/24 01:25:47;;;;;;;;;;;6.70;99.90;;;;;;5116996;28;20515;-87
2021/12/24 01:38:08;;;;;;;39.83;13.00;;;6.60;99.90;;;;;;5103486;28;20435;-87
2021/12/24 01:43:40;;;;;;;39.60;13.70;;;6.60;99.90;;;;;;5086913;28;20431;-87
2021/12/24 01:46:24;;;;;;;;;;;6.60;99.90;;;;;;5101798;28;20476;-87
2021/12/24 01:49:08;;;;;;;28.33;10.60;;;6.70;99.90;;;;;;5101411;28;20018;-87
2021/12/24 01:51:53;;;;;;;32.75;11.52;;;7.80;99.90;;;;;;5100530;28;20047;-87
2021/12/24 01:54:39;;;;;;;30.33;10.77;;;6.70;99.90;;;;;;5100530;28;20084;-87
2021/12/24 01:57:23;;;;;;;33.00;11.98;;;6.70;99.90;;;;;;5101163;28;20088;-87
2021/12/24 02:00:08;;;;;;;;;;;6.90;99.90;;;;;;5101325;28;20038;-87
2021/12/24 02:02:53;;;;;;;28.50;10.10;;;6.80;99.90;;;;;;5100298;28;20550;-87
2021/12/24 02:05:39;;;;;;;30.15;11.05;;;6.80;99.90;;;;;;5085935;28;20042;-86
2021/12/24 02:08:23;;;;;;;30.50;11.57;;;6.80;99.90;;;;;;5100808;28;20403;-87
2021/12/24 02:11:08;;;;;;;30.98;11.50;;;7.50;99.90;;;;;;5086480;28;20034;-88
2021/12/24 02:13:52;;;;;;;27.02;10.23;;;6.90;99.90;;;;;;5100108;28;20419;-87
2021/12/24 02:28:40;;;;;;;18.63;7.80;;;6.90;99.90;;;;;;5115353;28;20496;-87
2021/12/24 02:31:27;;;;;;;23.15;9.40;;;7.10;99.90;;;;;;5085984;28;20056;-88
2021/12/24 02:34:11;;;;;;;19.20;8.20;;;7.00;99.90;;;;;;5115611;28;20074;-87
2021/12/24 02:36:56;;;;;;;20.48;7.93;;;7.00;99.90;;;;;;5099621;28;20050;-87
2021/12/24 02:39:41;;;;;;;16.67;7.72;;;7.00;99.90;;;;;;5099699;28;20418;-87
2021/12/24 02:42:25;;;;;;;15.88;7.32;;;8.20;99.90;;;;;;5115679;28;20042;-87
2021/12/24 02:45:11;;;;;;;17.17;7.13;;;7.00;99.90;;;;;;5105426;28;20511;-87
2021/12/24 02:53:58;;;;;;;15.95;6.88;;;7.10;99.90;;;;;;5113864;28;20182;-87
2021/12/24 02:56:53;;;;;;;13.85;6.05;;;7.60;99.90;;;;;;5113849;28;20050;-87
2021/12/24 02:59:47;;;;;;;12.95;6.20;;;7.10;99.90;;;;;;5088127;28;20042;-88
2021/12/24 03:02:31;;;;;;;;;;;7.20;99.90;;;;;;5114646;28;20490;-88
2021/12/24 03:05:17;;;;;;;;;;;7.20;99.90;;;;;;5114684;28;20413;-87
2021/12/24 03:08:02;;;;;;;13.15;6.18;;;7.30;99.90;;;;;;5113511;28;19986;-87
2021/12/24 03:10:46;;;;;;;13.48;6.10;;;7.20;99.90;;;;;;5114429;28;20070;-87
2021/12/24 03:13:32;;;;;;;12.63;6.50;;;7.30;99.90;;;;;;5099581;28;20042;-88
2021/12/24 03:16:16;;;;;;;18.23;7.25;;;7.30;99.90;;;;;;5114801;28;20403;-88
2021/12/24 03:19:02;;;;;;;15.32;6.93;;;7.30;99.90;;;;;;5113263;28;20066;-88
2021/12/24 03:21:55;;;;;;;21.00;8.45;;;8.20;99.90;;;;;;5098780;28;20151;-88
2021/12/24 03:24:40;;;;;;;20.88;7.78;;;7.40;99.90;;;;;;5087497;28;20477;-88
2021/12/24 03:27:25;;;;;;;25.90;9.35;;;7.40;99.90;;;;;;5113818;28;20042;-87
2021/12/24 03:30:10;;;;;;;30.08;9.32;;;7.50;99.90;;;;;;5105958;28;20051;-88
2021/12/24 03:32:55;;;;;;;41.75;11.40;;;7.50;99.90;;;;;;5098751;28;20092;-88
2021/12/24 03:35:39;;;;;;;41.80;12.48;;;7.50;99.90;;;;;;5099283;28;20070;-87
2021/12/24 03:38:24;;;;;;;;;;;7.60;99.90;;;;;;5113980;28;20085;-88
2021/12/24 03:41:08;;;;;;;33.17;11.20;;;7.60;99.90;;;;;;5112852;28;19926;-88
2021/12/24 03:43:53;;;;;;;32.67;11.63;;;7.60;99.90;;;;;;5112471;28;20055;-88
2021/12/24 03:46:49;;;;;;;33.88;11.48;;;7.60;99.90;;;;;;5113703;28;20128;-88
2021/12/24 03:49:41;;;;;;;34.17;12.10;;;7.70;99.90;;;;;;5114309;28;20057;-89
2021/12/24 03:55:18;;;;;;;42.53;13.70;;;7.80;99.90;;;;;;5100012;28;20096;-88
2021/12/24 03:58:02;;;;;;;;;;;7.90;99.90;;;;;;5084196;28;20457;-88
2021/12/24 04:00:46;;;;;;;62.65;18.25;;;7.90;99.90;;;;;;5098577;28;19954;-87
2021/12/24 04:03:31;;;;;;;68.72;18.38;;;8.10;99.90;;;;;;5084285;28;20038;-88
2021/12/24 04:06:15;;;;;;;75.20;20.10;;;8.50;99.90;;;;;;5097915;28;20399;-87
2021/12/24 04:09:01;;;;;;;71.55;19.27;;;8.00;99.90;;;;;;5083619;28;20039;-88
2021/12/24 04:11:45;;;;;;;57.63;18.50;;;8.10;99.90;;;;;;5098640;28;20039;-88
2021/12/24 04:14:29;;;;;;;;;;;8.10;99.90;;;;;;5114199;28;20414;-88
2021/12/24 04:17:13;;;;;;;61.10;18.58;;;8.10;99.90;;;;;;5113144;28;20140;-88
2021/12/24 04:26:00;;;;;;;67.13;20.05;;;8.20;99.90;;;;;;5112966;28;20092;-88
2021/12/24 04:28:44;;;;;;;64.00;22.05;;;8.80;99.90;;;;;;5083703;28;20092;-88
2021/12/24 04:31:39;;;;;;;;;;;8.20;99.90;;;;;;5098534;28;20043;-88
2021/12/24 04:34:27;;;;;;;;;;;8.20;99.90;;;;;;5085721;28;20283;-88
2021/12/24 05:04:48;;;;;;;48.05;21.25;;;8.40;99.90;;;;;;5061391;28;20118;-88
2021/12/24 05:10:28;;;;;;;44.50;18.42;;;8.30;99.90;;;;;;5109490;28;20047;-87
2021/12/24 05:13:15;;;;;;;46.90;17.80;;;8.30;99.90;;;;;;5111348;28;20055;-88
2021/12/24 05:16:06;;;;;;;44.42;19.15;;;8.40;99.90;;;;;;5111676;28;20035;-88
2021/12/24 05:21:44;;;;;;;44.50;19.27;;;8.40;99.90;;;;;;5112742;28;20463;-88
2021/12/24 05:24:30;;;;;;;41.97;19.92;;;8.70;99.90;;;;;;5140902;27;20101;-88
2021/12/24 05:27:14;;;;;;;50.30;19.92;;;8.40;99.90;;;;;;5097059;28;20039;-88
2021/12/24 05:29:59;;;;;;;47.78;20.98;;;8.40;99.90;;;;;;5097325;28;20078;-88
2021/12/24 05:32:43;;;;;;;54.13;20.95;;;8.40;99.90;;;;;;5111674;28;20123;-88
2021/12/24 05:35:27;;;;;;;43.05;19.58;;;8.40;99.90;;;;;;5096806;28;20457;-88
2021/12/24 05:38:14;;;;;;;46.78;20.88;;;8.40;99.90;;;;;;5111041;28;20131;-88
2021/12/24 05:40:58;;;;;;;41.75;18.65;;;8.40;99.90;;;;;;5097280;28;20118;-88
2021/12/24 05:43:42;;;;;;;43.30;19.73;;;8.40;99.90;;;;;;5126013;28;20050;-87
2021/12/24 05:46:26;;;;;;;44.40;19.33;;;8.40;99.90;;;;;;5110961;28;20055;-87
2021/12/24 05:49:11;;;;;;;43.65;19.70;;;8.40;99.90;;;;;;5140118;27;20034;-87
2021/12/24 05:51:55;;;;;;;47.25;19.17;;;8.40;99.90;;;;;;5111439;28;20046;-87
2021/12/24 05:54:40;;;;;;;47.10;19.25;;;8.40;99.90;;;;;;5112613;28;20407;-87
2021/12/24 05:57:27;;;;;;;42.42;18.42;;;8.30;99.90;;;;;;5096582;28;20093;-87
2021/12/24 06:00:12;;;;;;;44.88;17.88;;;8.40;99.90;;;;;;5096843;28;20085;-87
2021/12/24 06:02:56;;;;;;;42.92;18.08;;;8.40;99.90;;;;;;5082729;28;20128;-88
2021/12/24 06:05:41;;;;;;;36.22;17.13;;;8.40;99.90;;;;;;5082751;28;20112;-87
2021/12/24 06:08:25;;;;;;;44.80;17.58;;;8.40;99.90;;;;;;5126152;27;20475;-87
2021/12/24 06:11:09;;;;;;;;;;;8.40;99.90;;;;;;5116424;28;20407;-84
2021/12/24 06:13:55;;;;;;;39.47;17.63;;;8.40;99.90;;;;;;5116036;28;19995;-87
2021/12/24 06:16:48;;;;;;;35.13;15.60;;;8.40;99.90;;;;;;5116082;28;20533;-87
2021/12/24 06:19:32;;;;;;;31.35;13.45;;;8.40;99.90;;;;;;5114415;28;20097;-87
2021/12/24 06:22:17;;;;;;;40.85;15.07;;;8.40;99.90;;;;;;5114207;28;20144;-87
2021/12/24 06:25:01;;;;;;;31.75;13.05;;;8.40;99.90;;;;;;5115879;28;20168;-87
2021/12/24 06:27:47;;;;;;;40.15;13.48;;;8.40;99.90;;;;;;5141447;27;20568;-87
2021/12/24 06:30:32;;;;;;;37.15;12.77;;;8.40;99.90;;;;;;5094876;28;20431;-87
2021/12/24 06:33:16;;;;;;;31.80;13.32;;;8.40;99.90;;;;;;5122579;27;20043;-86
2021/12/24 06:36:01;;;;;;;33.83;13.30;;;8.30;99.90;;;;;;5108560;28;20148;-87
2021/12/24 06:38:45;;;;;;;34.35;13.43;;;8.30;99.90;;;;;;5095025;28;20047;-88
2021/12/24 06:41:30;;;;;;;38.45;13.88;;;8.30;99.90;;;;;;5097549;28;20035;-86
2021/12/24 06:44:14;;;;;;;37.17;12.05;;;8.40;99.90;;;;;;5114996;28;20070;-87
2021/12/24 06:46:59;;;;;;;38.17;11.77;;;8.50;99.90;;;;;;5099900;28;20054;-87
2021/12/24 06:49:44;;;;;;;29.13;12.00;;;8.30;99.90;;;;;;5080427;28;20085;-88
2021/12/24 06:52:28;;;;;;;31.38;13.00;;;8.30;99.90;;;;;;5093467;28;20105;-87
2021/12/24 06:55:12;;;;;;;;;;;8.30;99.90;;;;;;5095486;28;20412;-85
2021/12/24 06:57:56;;;;;;;31.42;11.63;;;8.20;99.90;;;;;;5094894;28;19915;-86
2021/12/24 07:00:41;;;;;;;24.13;10.57;;;8.60;99.90;;;;;;5094329;28;20035;-87
2021/12/24 07:03:25;;;;;;;32.33;12.07;;;8.30;99.90;;;;;;5107046;28;20039;-83
2021/12/24 07:06:09;;;;;;;35.25;10.82;;;8.20;99.90;;;;;;5093158;28;20074;-87
2021/12/24 07:08:53;;;;;;;27.35;9.93;;;8.20;99.90;;;;;;5081476;28;20446;-86
2021/12/24 07:11:38;;;;;;;30.20;10.23;;;8.20;99.90;;;;;;5070529;28;20042;-86
2021/12/24 07:14:23;;;;;;;32.70;10.38;;;8.20;99.90;;;;;;5084777;28;20046;-86
2021/12/24 07:17:09;;;;;;;34.33;10.13;;;8.20;99.90;;;;;;5099503;28;20484;-86
2021/12/24 07:19:53;;;;;;;29.52;9.82;;;8.20;99.90;;;;;;5084328;28;20058;-86
2021/12/24 07:22:37;;;;;;;;;;;8.50;99.90;;;;;;5099265;28;20047;-86
2021/12/24 07:25:21;;;;;;;27.90;10.02;;;8.10;99.90;;;;;;5099015;28;20287;-85
2021/12/24 07:28:06;;;;;;;36.45;11.02;;;8.10;99.90;;;;;;5084453;28;20502;-86
2021/12/24 07:30:50;;;;;;;29.60;10.52;;;8.10;99.90;;;;;;5114131;28;20034;-85
2021/12/24 07:33:34;;;;;;;;;;;8.10;99.90;;;;;;5113740;28;20545;-87
2021/12/24 07:36:18;;;;;;;30.85;9.85;;;8.10;99.90;;;;;;5098951;28;19919;-87
2021/12/24 07:39:04;;;;;;;33.75;10.85;;;8.10;99.90;;;;;;5086645;28;20063;-86
2021/12/24 07:41:48;;;;;;;34.58;10.20;;;8.00;99.90;;;;;;5106544;28;20051;-86
2021/12/24 07:44:34;;;;;;;26.25;9.27;;;8.20;99.90;;;;;;5077926;28;20066;-87
2021/12/24 07:47:27;;;;;;;27.83;9.00;;;8.10;99.90;;;;;;5121128;27;20035;-86
2021/12/24 07:51:57;;;;;;;24.67;9.07;;;8.10;99.90;;;;;;5119479;27;20104;-87
2021/12/24 07:53:21;;;;;;;29.83;8.68;;;8.00;99.90;;;;;;5093872;28;20043;-88
2021/12/24 07:56:06;;;;;;;26.40;8.95;;;8.00;99.90;;;;;;5092814;28;20035;-85
2021/12/24 07:58:50;;;;;;;26.27;8.15;;;8.10;99.90;;;;;;5105883;27;20038;-83
2021/12/24 08:01:34;;;;;;;25.60;8.25;;;8.00;99.90;;;;;;5108431;27;20035;-84
2021/12/24 08:04:18;;;;;;;;;;;8.00;99.90;;;;;;5111780;28;20165;-85
2021/12/24 08:07:03;;;;;;;26.65;8.27;;;8.40;99.90;;;;;;5092522;28;19927;-87
2021/12/24 08:09:50;;;;;;;27.63;8.18;;;8.00;99.90;;;;;;5093007;28;20510;-87
2021/12/24 08:12:34;;;;;;;23.58;7.88;;;8.00;99.90;;;;;;5091842;28;20034;-86
2021/12/24 08:15:19;;;;;;;30.05;7.88;;;8.00;99.90;;;;;;5092423;28;20062;-86
2021/12/24 08:18:03;;;;;;;37.55;8.38;;;8.00;99.90;;;;;;5092165;28;20039;-86
2021/12/24 08:20:48;;;;;;;31.63;7.28;;;8.00;99.90;;;;;;5077383;28;20820;-85
2021/12/24 08:23:31;;;;;;;;;;;8.00;99.90;;;;;;5092007;28;20039;-87
2021/12/24 08:26:17;;;;;;;30.25;7.28;;;8.00;99.90;;;;;;5092254;28;20296;-86
2021/12/24 08:29:03;;;;;;;21.55;7.03;;;8.00;99.90;;;;;;5092277;28;20069;-87
2021/12/24 08:31:48;;;;;;;17.35;5.95;;;8.00;99.90;;;;;;5091364;28;20046;-87
2021/12/24 08:34:33;;;;;;;21.75;6.57;;;8.00;99.90;;;;;;5091615;28;20400;-85
2021/12/24 08:37:17;;;;;;;19.20;6.55;;;8.20;99.90;;;;;;5093077;28;20043;-87
2021/12/24 08:40:03;;;;;;;26.35;7.22;;;8.00;99.90;;;;;;5092856;28;20051;-86
2021/12/24 08:42:48;;;;;;;24.75;7.53;;;8.00;99.90;;;;;;5091404;28;20501;-86
2021/12/24 08:45:32;;;;;;;26.85;6.20;;;8.10;99.90;;;;;;5092520;28;20067;-87
2021/12/24 08:48:16;;;;;;;30.15;7.45;;;8.00;99.90;;;;;;5077663;28;20051;-88
2021/12/24 08:51:01;;;;;;;23.08;6.15;;;8.00;99.90;;;;;;5077472;28;20046;-87
2021/12/24 08:53:46;;;;;;;24.15;6.13;;;8.00;99.90;;;;;;5076814;28;20156;-87
2021/12/24 08:56:30;;;;;;;29.50;7.00;;;8.00;99.90;;;;;;5077424;28;20043;-87
2021/12/24 08:59:15;;;;;;;21.38;6.88;;;8.00;99.90;;;;;;5077454;28;20125;-87
2021/12/24 09:02:01;;;;;;;21.13;6.05;;;8.00;99.90;;;;;;5062917;28;20180;-87
2021/12/24 09:04:46;;;;;;;27.25;8.02;;;8.00;99.90;;;;;;5062808;28;20123;-87
2021/12/24 09:07:30;;;;;;;;;;;7.90;99.90;;;;;;5077663;28;20039;-87
2021/12/24 09:10:14;;;;;;;23.40;6.43;;;8.00;99.90;;;;;;5077351;28;19923;-86
2021/12/24 09:12:58;;;;;;;21.65;6.40;;;8.10;99.90;;;;;;5076591;28;20038;-86
2021/12/24 09:15:43;;;;;;;22.65;6.93;;;7.10;99.90;;;;;;5076661;28;20059;-87
2021/12/24 09:18:27;;;;;;;23.65;6.13;;;8.00;99.90;;;;;;5077238;28;20040;-88
2021/12/24 09:21:17;;;;;;;;;;;8.00;99.90;;;;;;5092960;28;20039;-88
2021/12/24 09:24:05;;;;;;;22.55;6.80;;;8.10;99.90;;;;;;5076524;28;19923;-88
2021/12/24 09:26:54;;;;;;;21.45;6.15;;;8.00;99.90;;;;;;5076591;28;20503;-88
2021/12/24 09:29:38;;;;;;;21.55;8.15;;;8.00;99.90;;;;;;5092234;28;20035;-87
2021/12/24 09:32:25;;;;;;;26.83;7.35;;;8.00;99.90;;;;;;5076969;28;20079;-86
2021/12/24 09:35:11;;;;;;;25.02;7.72;;;8.00;99.90;;;;;;5049753;28;20043;-88
2021/12/24 09:37:56;;;;;;;27.25;7.47;;;8.00;99.90;;;;;;5076371;28;20039;-87
2021/12/24 09:40:41;;;;;;;30.48;7.53;;;8.00;99.90;;;;;;5076919;28;20035;-87
2021/12/24 09:43:25;;;;;;;;;;;8.00;99.90;;;;;;5078075;28;20096;-88
2021/12/24 09:46:09;;;;;;;;;;;8.00;99.90;;;;;;5096639;28;19922;-87
2021/12/24 09:48:54;;;;;;;28.35;7.90;;;8.00;99.90;;;;;;5094635;28;19965;-87
2021/12/24 09:51:41;;;;;;;32.20;8.10;;;8.10;99.90;;;;;;5066716;28;20085;-87
2021/12/24 09:54:26;;;;;;;24.13;7.95;;;8.00;99.90;;;;;;5080801;28;20118;-87
2021/12/24 09:57:13;;;;;;;39.13;8.02;;;8.70;99.90;;;;;;5080628;28;20093;-87
2021/12/24 09:59:57;;;;;;;29.25;7.65;;;8.00;99.90;;;;;;5080058;28;20044;-89
2021/12/24 10:02:44;;;;;;;;;;;8.10;99.90;;;;;;5067011;28;20039;-86
2021/12/24 10:05:41;;;;;;;22.77;6.20;;;8.50;99.90;;;;;;5094916;28;20034;-87
2021/12/24 10:08:27;;;;;;;14.43;6.18;;;8.00;99.90;;;;;;5080539;28;20066;-87
2021/12/24 10:11:14;;;;;;;21.17;7.25;;;8.50;99.90;;;;;;5066306;28;20085;-87
2021/12/24 10:14:05;;;;;;;20.77;5.97;;;8.10;99.90;;;;;;5079803;28;20047;-87
2021/12/24 10:16:51;;;;;;;16.38;5.30;;;8.10;99.90;;;;;;5079705;28;20031;-86
2021/12/24 10:19:53;;;;;;;17.55;4.28;;;8.10;99.90;;;;;;5080350;28;20035;-86
2021/12/24 10:22:49;;;;;;;17.42;5.00;;;8.10;99.90;;;;;;5080180;28;20089;-86
2021/12/24 10:25:34;;;;;;;13.65;4.38;;;8.10;99.90;;;;;;5080135;28;20046;-86
2021/12/24 10:28:21;;;;;;;20.40;4.68;;;8.10;99.90;;;;;;5066634;28;20054;-87
2021/12/24 10:31:04;;;;;;;12.20;4.18;;;8.10;99.90;;;;;;5079825;28;20182;-88
2021/12/24 10:34:30;;;;;;;10.07;3.40;;;8.20;99.90;;;;;;5051619;28;20503;-88
2021/12/24 10:37:23;;;;;;;10.50;3.60;;;8.10;99.90;;;;;;5079629;28;20089;-87
2021/12/24 10:40:08;;;;;;;5.28;1.83;;;8.30;99.90;;;;;;5094704;28;20082;-86
2021/12/24 10:42:52;;;;;;;3.30;1.40;;;8.10;99.90;;;;;;5079316;28;20051;-87
2021/12/24 10:45:36;;;;;;;;;;;7.90;99.90;;;;;;5074738;28;20112;-86
2021/12/24 10:48:21;;;;;;;2.75;1.50;;;7.70;99.90;;;;;;5094084;28;19964;-86
2021/12/24 10:51:07;;;;;;;2.30;1.48;;;7.40;99.90;;;;;;5126753;27;20518;-87
2021/12/24 10:54:03;;;;;;;3.67;1.60;;;7.30;99.90;;;;;;5110729;27;20089;-86
2021/12/24 10:56:47;;;;;;;3.20;2.53;;;7.10;99.90;;;;;;5112165;28;20112;-85
2021/12/24 10:59:43;;;;;;;3.47;1.75;;;7.00;99.90;;;;;;5114416;28;20034;-85
2021/12/24 11:02:34;;;;;;;3.70;1.95;;;6.90;99.90;;;;;;5104490;28;20119;-86
2021/12/24 11:05:46;;;;;;;2.78;1.70;;;6.90;99.90;;;;;;5094590;28;20042;-86
2021/12/24 11:08:31;;;;;;;3.05;2.08;;;6.80;99.90;;;;;;5094661;28;20043;-85
2021/12/24 11:11:18;;;;;;;;;;;6.70;99.90;;;;;;5093548;28;20129;-85
2021/12/24 11:14:03;;;;;;;3.35;2.25;;;7.00;99.90;;;;;;5092408;28;20007;-85
2021/12/24 11:16:47;;;;;;;4.65;2.50;;;6.50;99.90;;;;;;5100065;28;20387;-86
2021/12/24 11:19:51;;;;;;;6.47;2.92;;;6.50;99.90;;;;;;5092205;28;20521;-85
2021/12/24 11:22:55;;;;;;;4.05;2.60;;;7.10;99.90;;;;;;5129737;27;20035;-87
2021/12/24 11:26:08;;;;;;;4.57;2.90;;;6.50;99.90;;;;;;5108661;28;20038;-87
2021/12/24 11:28:52;;;;;;;4.55;3.17;;;6.50;99.90;;;;;;5091966;28;20402;-87
2021/12/24 11:31:37;;;;;;;6.53;3.45;;;6.80;99.90;;;;;;5112016;28;20041;-87
2021/12/24 11:34:22;;;;;;;5.95;3.40;;;6.40;99.90;;;;;;5112365;28;20035;-87
2021/12/24 11:37:06;;;;;;;6.30;3.85;;;6.40;99.90;;;;;;5095881;28;20046;-88
2021/12/24 11:39:51;;;;;;;5.07;3.80;;;6.50;99.90;;;;;;5110066;28;20147;-88
2021/12/24 11:42:39;;;;;;;9.30;4.05;;;6.50;99.90;;;;;;5102325;28;20081;-88
2021/12/24 11:45:26;;;;;;;6.65;3.50;;;6.60;99.90;;;;;;5107090;28;20070;-87
2021/12/24 11:48:10;;;;;;;5.65;3.47;;;6.60;99.90;;;;;;5109315;28;20043;-87
2021/12/24 11:50:55;;;;;;;7.32;3.35;;;6.70;99.90;;;;;;5107394;28;20400;-85
2021/12/24 11:53:39;;;;;;;4.40;3.20;;;6.70;99.90;;;;;;5094140;28;20123;-85
2021/12/24 11:56:24;;;;;;;3.42;2.45;;;7.20;99.90;;;;;;5121117;27;20089;-87
2021/12/24 11:59:08;;;;;;;5.35;2.95;;;6.60;99.90;;;;;;5094346;28;20050;-90
2021/12/24 12:01:52;;;;;;;5.75;3.13;;;6.60;99.90;;;;;;5123184;27;20404;-86
2021/12/24 12:04:37;;;;;;;4.70;2.88;;;6.60;99.90;;;;;;5108459;28;20039;-86
2021/12/24 12:07:24;;;;;;;4.95;3.80;;;6.60;99.90;;;;;;5141215;27;20043;-86
2021/12/24 12:10:10;;;;;;;3.85;2.95;;;6.70;99.90;;;;;;5113326;28;20101;-86
2021/12/24 12:12:54;;;;;;;5.88;3.33;;;6.70;99.90;;;;;;5114657;28;20100;-88
2021/12/24 12:15:38;;;;;;;;;;;6.80;99.90;;;;;;5095441;28;20038;-87
2021/12/24 12:18:29;;;;;;;4.40;2.42;;;6.60;99.90;;;;;;5091812;28;20303;-86
2021/12/24 12:21:20;;;;;;;3.85;2.75;;;6.60;99.90;;;;;;5092797;28;20047;-85
2021/12/24 12:26:55;;;;;;;4.60;2.42;;;6.60;99.90;;;;;;5093207;28;20551;-86
2021/12/24 12:29:44;;;;;;;5.60;3.00;;;6.60;99.90;;;;;;5091983;28;20054;-86
2021/12/24 12:32:39;;;;;;;3.60;2.58;;;6.80;99.90;;;;;;5077267;28;20043;-85
2021/12/24 12:35:43;;;;;;;3.50;2.30;;;6.50;99.90;;;;;;5091591;28;20079;-85
2021/12/24 12:38:44;;;;;;;3.43;2.43;;;6.50;99.90;;;;;;5091649;28;20086;-85
2021/12/24 12:41:34;;;;;;;6.18;2.53;;;7.30;99.90;;;;;;5092723;28;20265;-85
2021/12/24 12:44:19;;;;;;;4.43;2.53;;;6.40;99.90;;;;;;5091387;28;20391;-85
2021/12/24 12:47:15;;;;;;;3.70;2.25;;;6.40;99.90;;;;;;5092998;28;20480;-85
2021/12/24 12:50:28;;;;;;;3.00;2.05;;;6.40;99.90;;;;;;5093039;28;20043;-85
2021/12/24 12:53:33;;;;;;;3.53;2.35;;;6.30;99.90;;;;;;5077217;28;20047;-86
2021/12/24 12:56:26;;;;;;;6.05;2.83;;;6.30;99.90;;;;;;5077157;28;20091;-86
2021/12/24 12:59:19;;;;;;;4.43;2.55;;;6.30;99.90;;;;;;5092457;28;20038;-86
2021/12/24 13:02:04;;;;;;;5.10;2.47;;;6.30;99.90;;;;;;5092843;28;20030;-86
2021/12/24 13:05:11;;;;;;;4.03;2.67;;;6.30;99.90;;;;;;5063640;28;20047;-87
2021/12/24 13:07:59;;;;;;;6.03;2.80;;;6.30;99.90;;;;;;5092857;28;20088;-86
2021/12/24 13:11:03;;;;;;;4.53;2.90;;;6.80;99.90;;;;;;5063659;28;20039;-86
2021/12/24 13:13:55;;;;;;;3.85;2.65;;;6.40;99.90;;;;;;5092921;28;20089;-86
2021/12/24 13:16:51;;;;;;;5.90;2.42;;;6.50;99.90;;;;;;5077454;28;20392;-85
2021/12/24 13:22:32;;;;;;;3.00;2.00;;;6.50;99.90;;;;;;5078308;28;20063;-85
2021/12/24 13:25:17;;;;;;;3.88;2.50;;;7.00;99.90;;;;;;5063060;28;20051;-86
2021/12/24 13:28:02;;;;;;;4.60;2.47;;;6.60;99.90;;;;;;5092531;28;20043;-85
2021/12/24 13:30:47;;;;;;;3.50;2.60;;;6.60;99.90;;;;;;5077556;28;20141;-85
2021/12/24 13:33:31;;;;;;;3.80;2.60;;;6.50;99.90;;;;;;5076858;28;20047;-85
2021/12/24 13:36:24;;;;;;;4.28;2.33;;;6.50;99.90;;;;;;5062631;28;20109;-86
2021/12/24 13:39:12;;;;;;;3.78;2.30;;;6.50;99.90;;;;;;5092505;28;20035;-85
2021/12/24 13:42:09;;;;;;;4.28;2.60;;;6.60;99.90;;;;;;5092564;28;20163;-85
2021/12/24 13:45:01;;;;;;;3.40;2.22;;;6.50;99.90;;;;;;5092199;28;20109;-85
2021/12/24 13:48:06;;;;;;;4.55;2.78;;;6.60;99.90;;;;;;5077381;28;20043;-85
2021/12/24 13:56:49;;;;;;;3.30;2.20;;;6.80;99.90;;;;;;5092365;28;20061;-85
2021/12/24 13:59:34;;;;;;;3.67;2.58;;;6.40;99.90;;;;;;5091872;28;20106;-86
2021/12/24 14:02:19;;;;;;;4.78;2.72;;;6.40;99.90;;;;;;5091813;28;20491;-86
2021/12/24 14:05:03;;;;;;;;;;;6.40;99.90;;;;;;5092621;28;20039;-86
2021/12/24 14:08:16;;;;;;;4.88;2.72;;;6.40;99.90;;;;;;5092167;28;20308;-86
2021/12/24 14:11:10;;;;;;;4.55;2.67;;;6.30;99.90;;;;;;5092093;28;20487;-85
2021/12/24 14:13:59;;;;;;;;;;;6.30;99.90;;;;;;5077197;28;20407;-85
2021/12/24 14:22:40;;;;;;;5.07;3.10;;;6.30;99.90;;;;;;5091602;28;20119;-86
2021/12/24 14:25:24;;;;;;;5.15;3.45;;;6.30;99.90;;;;;;5076727;28;20127;-86
2021/12/24 14:28:14;;;;;;;5.53;2.88;;;6.30;99.90;;;;;;5077019;28;20055;-86
2021/12/24 14:31:04;;;;;;;7.63;3.60;;;6.40;99.90;;;;;;5080073;28;20050;-87
2021/12/24 14:33:48;;;;;;;3.95;3.00;;;6.30;99.90;;;;;;5066589;28;20047;-86
2021/12/24 14:36:32;;;;;;;;;;;6.30;99.90;;;;;;5080241;28;20092;-86
2021/12/24 14:39:17;;;;;;;5.82;3.35;;;6.30;99.90;;;;;;5095603;28;19961;-87
2021/12/24 14:42:21;;;;;;;5.18;3.90;;;6.20;99.90;;;;;;5095453;28;20059;-87
2021/12/24 14:45:32;;;;;;;7.63;3.60;;;6.30;99.90;;;;;;5082876;28;20412;-88
2021/12/24 14:48:23;;;;;;;10.45;5.32;;;6.20;99.90;;;;;;5095549;28;20035;-89
2021/12/24 14:51:09;;;;;;;5.60;3.40;;;6.40;99.90;;;;;;5095415;28;20530;-89
2021/12/24 14:54:04;;;;;;;6.90;4.03;;;6.20;99.90;;;;;;5094514;28;20042;-88
2021/12/24 14:56:48;;;;;;;3.95;2.80;;;6.20;99.90;;;;;;5094417;28;20089;-86
2021/12/24 14:59:37;;;;;;;;;;;6.40;99.90;;;;;;5093909;28;20427;-85
2021/12/24 15:02:21;;;;;;;6.97;3.28;;;6.20;99.90;;;;;;5093654;28;20375;-88
2021/12/24 15:05:06;;;;;;;5.38;3.15;;;6.80;99.90;;;;;;5079225;28;20170;-88
2021/12/24 15:07:50;;;;;;;6.07;3.05;;;6.10;99.90;;;;;;5107924;28;20104;-87
2021/12/24 15:10:34;;;;;;;6.90;3.25;;;6.10;99.90;;;;;;5094316;28;20084;-88
2021/12/24 15:13:20;;;;;;;;;;;6.10;99.90;;;;;;5093968;28;20089;-87
2021/12/24 15:16:04;;;;;;;4.40;2.42;;;6.10;99.90;;;;;;5094688;28;19958;-89
2021/12/24 15:18:55;;;;;;;5.25;2.13;;;6.00;99.90;;;;;;5094371;28;20732;-89
2021/12/24 15:21:39;;;;;;;5.38;2.33;;;6.00;99.90;;;;;;5112052;28;20027;-87
2021/12/24 15:24:23;;;;;;;6.85;2.90;;;6.00;99.90;;;;;;5113200;28;20539;-88
2021/12/24 15:27:07;;;;;;;;;;;5.90;99.90;;;;;;5112646;28;20062;-88
2021/12/24 15:29:51;;;;;;;10.15;2.38;;;5.80;99.90;;;;;;5111078;28;19922;-90
2021/12/24 15:32:35;;;;;;;;;;;5.80;99.90;;;;;;5101692;28;20034;-90
2021/12/24 15:35:20;;;;;;;5.13;1.42;;;6.10;99.90;;;;;;5111671;28;19955;-87
2021/12/24 15:38:06;;;;;;;7.97;2.00;;;5.70;99.90;;;;;;5109287;28;20089;-88
2021/12/24 15:40:50;;;;;;;4.82;1.90;;;5.90;99.90;;;;;;5110098;28;20109;-90
2021/12/24 15:43:36;;;;;;;6.40;2.30;;;5.70;99.90;;;;;;5111980;28;20034;-88
2021/12/24 15:46:21;;;;;;;5.22;2.45;;;5.60;99.90;;;;;;5092735;28;20113;-88
2021/12/24 15:49:05;;;;;;;6.43;2.58;;;6.90;99.90;;;;;;5103543;28;20388;-88
2021/12/24 15:51:49;;;;;;;8.25;3.60;;;5.70;99.90;;;;;;5107528;28;20034;-88
2021/12/24 15:54:33;;;;;;;5.85;3.40;;;5.60;99.90;;;;;;5098383;28;20094;-88
2021/12/24 15:57:18;;;;;;;6.45;2.20;;;5.50;99.90;;;;;;5112650;28;20066;-88
2021/12/24 16:00:04;;;;;;;5.15;1.67;;;5.60;99.90;;;;;;5112516;28;20399;-88
2021/12/24 16:02:49;;;;;;;4.30;1.95;;;5.50;99.90;;;;;;5113573;28;20082;-90
2021/12/24 16:05:34;;;;;;;3.40;1.52;;;5.50;99.90;;;;;;5113265;28;20055;-89
2021/12/24 16:08:20;;;;;;;3.28;2.05;;;6.30;99.90;;;;;;5114860;28;20191;-88
2021/12/24 16:11:04;;;;;;;5.00;1.80;;;5.50;99.90;;;;;;5113206;28;20503;-86
2021/12/24 16:13:48;;;;;;;;;;;5.50;99.90;;;;;;5112729;28;20138;-87
2021/12/24 16:16:32;;;;;;;4.15;1.83;;;5.50;99.90;;;;;;5112748;28;19918;-87
2021/12/24 16:19:18;;;;;;;6.40;1.50;;;5.40;99.90;;;;;;5112553;28;20081;-86
2021/12/24 16:22:03;;;;;;;6.57;1.67;;;5.30;99.90;;;;;;5112259;28;20545;-87
2021/12/24 16:24:47;;;;;;;6.32;1.95;;;5.30;99.90;;;;;;5112184;28;20047;-88
2021/12/24 16:27:32;;;;;;;;;;;5.30;99.90;;;;;;5114041;28;20043;-88
2021/12/24 16:30:18;;;;;;;6.38;2.40;;;6.10;99.90;;;;;;5113594;28;19946;-88
2021/12/24 16:33:03;;;;;;;7.05;3.17;;;5.80;99.90;;;;;;5112076;28;20553;-89